createdAt,value
2023-02-20T00:01:03.086Z,69.70
2023-02-20T00:03:31.345Z,69.80
2023-02-20T00:05:58.422Z,70.00
2023-02-20T00:08:25.432Z,70.20
2023-02-20T00:10:52.401Z,70.30
2023-02-20T00:13:19.429Z,70.30
2023-02-20T00:15:46.454Z,70.30
2023-02-20T00:18:14.425Z,70.40
2023-02-20T00:20:41.417Z,70.40
2023-02-20T00:23:08.389Z,70.40
2023-02-20T00:25:35.302Z,70.30
2023-02-20T00:28:02.566Z,70.40
2023-02-20T00:30:29.838Z,70.30
2023-02-20T00:32:57.839Z,70.20
2023-02-20T00:35:26.410Z,70.30
2023-02-20T00:37:55.105Z,70.40
2023-02-20T00:40:24.552Z,70.50
2023-02-20T00:42:51.630Z,70.60
2023-02-20T00:45:19.285Z,70.80
2023-02-20T00:47:46.521Z,71.00
2023-02-20T00:50:15.813Z,71.10
2023-02-20T00:52:42.822Z,71.20
2023-02-20T00:55:11.552Z,71.20
2023-02-20T00:57:38.602Z,71.30
2023-02-20T01:00:17.013Z,71.30
2023-02-20T01:02:44.077Z,71.40
2023-02-20T01:05:11.087Z,71.30
2023-02-20T01:07:37.991Z,71.20
2023-02-20T01:10:08.836Z,71.10
2023-02-20T01:12:35.904Z,71.10
2023-02-20T01:15:03.125Z,71.00
2023-02-20T01:17:30.250Z,71.00
2023-02-20T01:19:57.232Z,70.80
2023-02-20T01:22:24.522Z,70.80
2023-02-20T01:24:51.611Z,70.80
2023-02-20T01:27:18.717Z,70.90
2023-02-20T01:29:45.862Z,70.80
2023-02-20T01:32:14.587Z,70.90
2023-02-20T01:34:41.632Z,71.00
2023-02-20T01:37:14.129Z,71.00
2023-02-20T01:39:41.423Z,71.10
2023-02-20T01:42:13.442Z,71.10
2023-02-20T01:44:42.336Z,71.20
2023-02-20T01:47:12.817Z,71.20
2023-02-20T01:49:55.894Z,71.30
2023-02-20T01:52:35.139Z,71.60
2023-02-20T01:55:05.388Z,71.80
2023-02-20T01:57:34.346Z,72.00
2023-02-20T02:00:15.585Z,72.20
2023-02-20T02:02:48.481Z,72.30
2023-02-20T02:05:16.254Z,72.30
2023-02-20T02:07:44.433Z,72.30
2023-02-20T02:10:18.440Z,72.40
2023-02-20T02:12:51.674Z,72.40
2023-02-20T02:15:21.557Z,72.40
2023-02-20T02:17:58.807Z,72.40
2023-02-20T02:20:34.710Z,72.60
2023-02-20T02:23:19.696Z,72.70
2023-02-20T02:26:05.918Z,72.80
2023-02-20T02:29:00.978Z,72.90
2023-02-20T02:32:12.813Z,72.90
2023-02-20T02:34:57.901Z,72.90
2023-02-20T02:37:33.748Z,72.90
2023-02-20T02:40:23.801Z,73.00
2023-02-20T02:43:16.452Z,73.00
2023-02-20T02:46:11.301Z,73.00
2023-02-20T02:49:12.004Z,72.90
2023-02-20T02:51:45.574Z,73.00
2023-02-20T02:54:13.853Z,73.10
2023-02-20T02:56:45.483Z,73.10
2023-02-20T02:59:18.083Z,73.10
2023-02-20T03:01:50.997Z,73.10
2023-02-20T03:04:23.461Z,73.10
2023-02-20T03:06:55.631Z,73.10
2023-02-20T03:09:30.781Z,73.10
2023-02-20T03:12:00.664Z,73.20
2023-02-20T03:15:21.258Z,73.30
2023-02-20T03:18:10.887Z,73.30
2023-02-20T03:20:42.684Z,73.20
2023-02-20T03:23:12.407Z,73.30
2023-02-20T03:26:02.950Z,73.30
2023-02-20T03:28:40.492Z,73.40
2023-02-20T03:31:19.670Z,73.30
2023-02-20T03:34:11.797Z,73.40
2023-02-20T03:37:08.498Z,73.40
2023-02-20T03:39:59.948Z,73.40
2023-02-20T03:42:49.672Z,73.40
2023-02-20T03:45:26.860Z,73.40
2023-02-20T03:47:59.732Z,73.40
2023-02-20T03:50:27.662Z,73.40
2023-02-20T03:52:57.527Z,74.20
2023-02-20T03:55:25.861Z,73.50
2023-02-20T03:58:00.888Z,73.60
2023-02-20T04:00:35.210Z,73.60
2023-02-20T04:03:15.196Z,73.60
2023-02-20T04:05:49.011Z,73.60
2023-02-20T04:08:35.660Z,73.60
2023-02-20T04:11:09.184Z,73.80
2023-02-20T04:13:38.978Z,73.80
2023-02-20T04:16:07.526Z,73.80
2023-02-20T04:18:35.955Z,73.80
2023-02-20T04:21:11.809Z,73.70
2023-02-20T04:23:45.458Z,73.70
2023-02-20T04:26:18.523Z,73.70
2023-02-20T04:28:48.112Z,73.80
2023-02-20T04:31:19.431Z,73.80
2023-02-20T04:33:47.867Z,73.90
2023-02-20T04:36:20.613Z,73.90
2023-02-20T04:38:48.982Z,73.80
2023-02-20T04:41:19.113Z,73.90
2023-02-20T04:43:46.200Z,73.90
2023-02-20T04:46:14.013Z,73.90
2023-02-20T04:48:41.243Z,73.90
2023-02-20T04:51:08.888Z,74.00
2023-02-20T04:53:35.872Z,74.00
2023-02-20T04:56:02.864Z,73.90
2023-02-20T04:58:34.241Z,74.00
2023-02-20T05:01:08.318Z,73.90
2023-02-20T05:03:35.941Z,73.90
2023-02-20T05:06:02.915Z,74.00
2023-02-20T05:08:32.211Z,73.90
2023-02-20T05:10:59.120Z,73.90
2023-02-20T05:13:26.020Z,73.90
2023-02-20T05:15:52.984Z,73.90
2023-02-20T05:18:27.028Z,73.90
2023-02-20T05:21:12.481Z,73.70
2023-02-20T05:23:39.605Z,73.70
2023-02-20T05:26:17.273Z,73.70
2023-02-20T05:28:45.225Z,73.70
2023-02-20T05:31:15.049Z,73.70
2023-02-20T05:33:43.273Z,73.60
2023-02-20T05:36:10.517Z,73.60
2023-02-20T05:38:37.692Z,73.60
2023-02-20T05:41:04.813Z,73.60
2023-02-20T05:43:31.913Z,73.60
2023-02-20T05:45:59.378Z,73.60
2023-02-20T05:48:26.345Z,73.40
2023-02-20T05:50:54.794Z,73.50
2023-02-20T05:53:21.789Z,73.50
2023-02-20T05:55:48.695Z,74.40
2023-02-20T05:58:15.843Z,73.70
2023-02-20T06:00:42.821Z,73.80
2023-02-20T06:03:12.442Z,73.80
2023-02-20T06:05:39.388Z,73.90
2023-02-20T06:08:06.566Z,74.60
2023-02-20T06:10:33.717Z,73.80
2023-02-20T06:13:02.274Z,73.80
2023-02-20T06:15:29.215Z,73.90
2023-02-20T06:17:56.253Z,74.00
2023-02-20T06:20:23.181Z,74.10
2023-02-20T06:22:50.527Z,74.10
2023-02-20T06:25:17.546Z,74.30
2023-02-20T06:27:44.535Z,74.10
2023-02-20T06:30:12.067Z,74.20
2023-02-20T06:32:39.042Z,74.10
2023-02-20T06:35:06.496Z,74.10
2023-02-20T06:37:33.470Z,74.00
2023-02-20T06:40:00.424Z,73.90
2023-02-20T06:42:27.417Z,73.90
2023-02-20T06:44:54.540Z,73.90
2023-02-20T06:47:21.570Z,73.90
2023-02-20T06:49:48.473Z,73.90
2023-02-20T06:52:15.403Z,73.80
2023-02-20T06:54:43.140Z,73.70
2023-02-20T06:57:10.215Z,73.90
2023-02-20T06:59:41.569Z,73.90
2023-02-20T07:02:12.856Z,73.80
2023-02-20T07:04:39.877Z,73.80
2023-02-20T07:07:07.120Z,73.80
2023-02-20T07:09:34.140Z,73.60
2023-02-20T07:12:01.098Z,73.40
2023-02-20T07:14:28.029Z,73.30
2023-02-20T07:16:54.949Z,73.30
2023-02-20T07:19:21.968Z,73.30
2023-02-20T07:21:48.978Z,73.30
2023-02-20T07:24:16.021Z,73.20
2023-02-20T07:26:43.157Z,73.10
2023-02-20T07:29:12.362Z,73.20
2023-02-20T07:31:39.609Z,73.20
2023-02-20T07:34:06.711Z,73.20
2023-02-20T07:36:38.375Z,73.10
2023-02-20T07:39:08.638Z,73.20
2023-02-20T07:41:36.088Z,73.30
2023-02-20T07:44:05.701Z,73.10
2023-02-20T07:46:34.214Z,73.10
2023-02-20T07:49:03.410Z,72.90
2023-02-20T07:51:31.049Z,72.80
2023-02-20T07:53:58.107Z,72.70
2023-02-20T07:56:25.059Z,72.90
2023-02-20T07:58:52.088Z,73.10
2023-02-20T08:01:20.000Z,71.20
2023-02-20T08:03:47.074Z,68.00
2023-02-20T08:06:16.531Z,66.50
2023-02-20T08:08:46.881Z,66.60
2023-02-20T08:11:13.958Z,67.30
2023-02-20T08:13:43.533Z,67.90
2023-02-20T08:16:10.903Z,68.40
2023-02-20T08:18:38.074Z,68.80
2023-02-20T08:21:05.363Z,69.20
2023-02-20T08:23:32.489Z,69.50
2023-02-20T08:26:00.220Z,69.80
2023-02-20T08:28:27.184Z,70.10
2023-02-20T08:30:54.126Z,70.30
2023-02-20T08:33:21.051Z,70.40
2023-02-20T08:35:54.115Z,70.50
2023-02-20T08:38:29.063Z,70.70
2023-02-20T08:40:56.682Z,70.70
2023-02-20T08:43:25.283Z,70.70
2023-02-20T08:45:54.049Z,70.70
2023-02-20T08:48:21.016Z,70.60
2023-02-20T08:50:48.144Z,70.70
2023-02-20T08:53:15.678Z,70.70
2023-02-20T08:55:42.819Z,70.60
2023-02-20T08:58:10.250Z,70.70
2023-02-20T09:00:37.563Z,70.60
2023-02-20T09:03:07.695Z,70.40
2023-02-20T09:05:35.789Z,70.20
2023-02-20T09:08:04.394Z,70.00
2023-02-20T09:10:31.366Z,69.80
2023-02-20T09:12:58.384Z,69.70
2023-02-20T09:15:26.121Z,69.50
2023-02-20T09:17:53.845Z,69.50
2023-02-20T09:20:22.538Z,69.50
2023-02-20T09:22:51.319Z,69.50
2023-02-20T09:25:19.544Z,69.50
2023-02-20T09:27:46.654Z,69.60
2023-02-20T09:30:19.849Z,69.60
2023-02-20T09:32:50.926Z,69.70
2023-02-20T09:35:21.075Z,69.70
2023-02-20T09:37:48.396Z,69.70
2023-02-20T09:40:16.323Z,70.30
2023-02-20T09:43:07.662Z,69.50
2023-02-20T09:45:38.589Z,69.60
2023-02-20T09:48:13.251Z,69.50
2023-02-20T09:50:46.097Z,69.50
2023-02-20T09:53:57.912Z,69.50
2023-02-20T09:56:46.561Z,69.60
2023-02-20T09:59:39.550Z,69.30
2023-02-20T10:02:09.610Z,69.00
2023-02-20T10:05:02.777Z,68.80
2023-02-20T10:07:38.418Z,68.40
2023-02-20T10:10:25.558Z,68.40
2023-02-20T10:13:10.665Z,68.40
2023-02-20T10:15:59.861Z,68.20
2023-02-20T10:18:42.863Z,68.10
2023-02-20T10:21:35.632Z,67.80
2023-02-20T10:24:32.638Z,67.50
2023-02-20T10:27:27.579Z,67.20
2023-02-20T10:29:57.830Z,66.90
2023-02-20T10:32:38.707Z,66.80
2023-02-20T10:35:09.903Z,66.50
2023-02-20T10:37:48.398Z,66.50
2023-02-20T10:40:42.440Z,66.00
2023-02-20T10:43:15.870Z,65.50
2023-02-20T10:45:47.458Z,65.30
2023-02-20T10:48:15.688Z,65.30
2023-02-20T10:51:03.505Z,65.20
2023-02-20T10:53:46.151Z,65.00
2023-02-20T10:56:19.073Z,65.00
2023-02-20T10:58:55.524Z,64.70
2023-02-20T11:01:30.001Z,64.80
2023-02-20T11:04:32.996Z,64.60
2023-02-20T11:07:23.260Z,64.60
2023-02-20T11:09:50.316Z,64.40
2023-02-20T11:12:34.641Z,64.30
2023-02-20T11:15:20.330Z,64.40
2023-02-20T11:17:50.975Z,64.40
2023-02-20T11:20:33.591Z,64.10
2023-02-20T11:23:03.598Z,63.90
2023-02-20T11:25:39.335Z,63.80
2023-02-20T11:28:24.473Z,63.70
2023-02-20T11:31:03.255Z,63.30
2023-02-20T11:33:33.611Z,63.10
2023-02-20T11:36:20.444Z,63.20
2023-02-20T11:38:49.846Z,62.80
2023-02-20T11:41:25.896Z,62.70
2023-02-20T11:44:13.187Z,62.50
2023-02-20T11:46:40.870Z,62.00
2023-02-20T11:49:12.288Z,61.90
2023-02-20T11:52:02.393Z,61.90
2023-02-20T11:54:36.742Z,61.20
2023-02-20T11:57:16.004Z,61.20
2023-02-20T11:59:44.798Z,61.50
2023-02-20T12:02:18.055Z,61.50
2023-02-20T12:05:01.296Z,61.60
2023-02-20T12:07:30.611Z,61.60
2023-02-20T12:10:22.732Z,61.60
2023-02-20T12:12:50.718Z,61.80
2023-02-20T12:15:21.182Z,61.70
2023-02-20T12:18:16.149Z,61.30
2023-02-20T12:20:54.612Z,61.20
2023-02-20T12:23:24.332Z,61.10
2023-02-20T12:26:14.321Z,61.10
2023-02-20T12:28:57.050Z,61.00
2023-02-20T12:32:09.150Z,60.80
2023-02-20T12:34:42.060Z,60.70
2023-02-20T12:37:41.334Z,60.80
2023-02-20T12:40:33.243Z,60.50
2023-02-20T12:43:09.300Z,60.50
2023-02-20T12:45:48.843Z,60.50
2023-02-20T12:48:39.769Z,60.30
2023-02-20T12:51:06.927Z,60.00
2023-02-20T12:53:52.860Z,59.80
2023-02-20T12:56:49.435Z,59.80
2023-02-20T12:59:26.556Z,59.70
2023-02-20T13:01:54.710Z,59.70
2023-02-20T13:04:36.812Z,59.40
2023-02-20T13:07:13.123Z,59.10
2023-02-20T13:10:05.751Z,58.70
2023-02-20T13:12:32.784Z,58.40
2023-02-20T13:15:31.839Z,58.10
2023-02-20T13:18:08.003Z,57.80
2023-02-20T13:20:45.718Z,57.90
2023-02-20T13:23:15.675Z,57.90
2023-02-20T13:25:50.605Z,58.00
2023-02-20T13:28:20.666Z,57.90
2023-02-20T13:31:09.422Z,57.60
2023-02-20T13:33:37.427Z,57.40
2023-02-20T13:36:06.505Z,57.50
2023-02-20T13:38:33.600Z,57.30
2023-02-20T13:41:09.364Z,57.20
2023-02-20T13:43:40.031Z,57.20
2023-02-20T13:46:14.766Z,57.00
2023-02-20T13:48:52.774Z,56.90
2023-02-20T13:51:21.518Z,56.70
2023-02-20T13:53:51.078Z,56.90
2023-02-20T13:56:22.182Z,56.80
2023-02-20T13:58:51.059Z,56.80
2023-02-20T14:01:18.257Z,56.60
2023-02-20T14:03:45.492Z,56.60
2023-02-20T14:06:16.538Z,56.50
2023-02-20T14:08:45.995Z,56.10
2023-02-20T14:11:15.303Z,55.90
2023-02-20T14:13:46.649Z,55.90
2023-02-20T14:16:28.847Z,55.90
2023-02-20T14:19:27.454Z,55.70
2023-02-20T14:21:54.563Z,55.50
2023-02-20T14:24:29.786Z,55.40
2023-02-20T14:26:57.089Z,55.60
2023-02-20T14:29:32.788Z,55.50
2023-02-20T14:32:02.303Z,55.40
2023-02-20T14:34:48.275Z,55.30
2023-02-20T14:37:22.000Z,55.10
2023-02-20T14:39:53.834Z,55.10
2023-02-20T14:42:24.269Z,54.90
2023-02-20T14:45:02.710Z,54.80
2023-02-20T14:47:31.796Z,55.00
2023-02-20T14:50:21.641Z,55.10
2023-02-20T14:53:20.869Z,55.00
2023-02-20T14:55:50.395Z,55.00
2023-02-20T14:58:20.355Z,55.20
2023-02-20T15:00:53.510Z,55.20
2023-02-20T15:03:31.454Z,55.00
2023-02-20T15:06:06.727Z,55.00
2023-02-20T15:08:36.093Z,54.90
2023-02-20T15:11:14.853Z,55.00
2023-02-20T15:13:44.982Z,54.80
2023-02-20T15:16:12.461Z,55.00
2023-02-20T15:18:45.383Z,54.90
2023-02-20T15:21:13.769Z,54.90
2023-02-20T15:23:43.824Z,55.00
2023-02-20T15:26:30.452Z,55.10
2023-02-20T15:29:23.555Z,55.10
2023-02-20T15:32:00.468Z,55.10
2023-02-20T15:34:36.487Z,55.20
2023-02-20T15:37:22.743Z,55.30
2023-02-20T15:39:55.144Z,55.30
2023-02-20T15:42:24.987Z,55.50
2023-02-20T15:44:53.207Z,55.40
2023-02-20T15:47:20.310Z,55.30
2023-02-20T15:49:47.369Z,55.20
2023-02-20T15:52:19.680Z,55.20
2023-02-20T15:54:56.226Z,55.30
2023-02-20T15:57:24.427Z,55.30
2023-02-20T15:59:51.598Z,55.40
2023-02-20T16:02:21.429Z,55.60
2023-02-20T16:04:49.288Z,55.50
2023-02-20T16:07:18.358Z,55.50
2023-02-20T16:09:45.681Z,56.00
2023-02-20T16:12:20.149Z,55.80
2023-02-20T16:14:48.503Z,54.80
2023-02-20T16:17:22.457Z,53.70
2023-02-20T16:19:49.475Z,52.70
2023-02-20T16:22:16.818Z,52.30
2023-02-20T16:24:44.880Z,52.10
2023-02-20T16:27:24.358Z,51.90
2023-02-20T16:29:55.803Z,51.80
2023-02-20T16:32:26.573Z,52.20
2023-02-20T16:34:56.217Z,52.80
2023-02-20T16:37:23.677Z,53.60
2023-02-20T16:39:51.107Z,54.20
2023-02-20T16:42:28.685Z,54.80
2023-02-20T16:44:56.021Z,55.30
2023-02-20T16:47:27.828Z,55.80
2023-02-20T16:50:19.583Z,56.30
2023-02-20T16:56:26.500Z,57.00
2023-02-20T16:59:08.710Z,57.30
2023-02-20T17:01:43.989Z,57.50
2023-02-20T17:04:14.455Z,58.30
2023-02-20T17:06:41.707Z,57.90
2023-02-20T17:09:08.828Z,58.10
2023-02-20T17:11:35.859Z,58.30
2023-02-20T17:14:03.145Z,58.40
2023-02-20T17:16:31.779Z,58.60
2023-02-20T17:18:59.148Z,58.80
2023-02-20T17:21:28.672Z,59.00
2023-02-20T17:24:02.207Z,59.30
2023-02-20T17:26:45.304Z,59.50
2023-02-20T17:29:23.496Z,59.80
2023-02-20T17:31:59.134Z,59.90
2023-02-20T17:34:49.138Z,60.10
2023-02-20T17:37:19.666Z,60.40
2023-02-20T17:40:04.825Z,60.60
2023-02-20T17:42:38.349Z,61.00
2023-02-20T17:45:06.052Z,61.10
2023-02-20T17:47:42.563Z,61.40
2023-02-20T17:50:17.295Z,61.60
2023-02-20T17:52:48.680Z,61.90
2023-02-20T17:55:27.184Z,62.20
2023-02-20T17:57:57.038Z,62.60
2023-02-20T18:00:31.569Z,62.90
2023-02-20T18:03:08.723Z,63.20
2023-02-20T18:05:51.732Z,63.60
2023-02-20T18:08:33.973Z,63.90
2023-02-20T18:11:15.940Z,64.10
2023-02-20T18:14:10.205Z,64.10
2023-02-20T18:16:45.464Z,64.40
2023-02-20T18:19:18.965Z,64.70
2023-02-20T18:21:53.153Z,64.90
2023-02-20T18:24:30.695Z,65.10
2023-02-20T18:27:00.716Z,65.20
2023-02-20T18:29:29.796Z,65.40
2023-02-20T18:31:57.719Z,65.60
2023-02-20T18:34:27.178Z,65.80
2023-02-20T18:36:55.179Z,66.00
2023-02-20T18:39:22.109Z,66.10
2023-02-20T18:41:51.620Z,66.20
2023-02-20T18:44:19.692Z,66.40
2023-02-20T18:46:46.802Z,66.40
2023-02-20T18:49:14.983Z,66.60
2023-02-20T18:51:44.897Z,66.70
2023-02-20T18:54:27.092Z,66.70
2023-02-20T18:56:55.297Z,66.70
2023-02-20T18:59:23.663Z,66.80
2023-02-20T19:01:50.857Z,66.70
2023-02-20T19:04:17.934Z,66.70
2023-02-20T19:06:46.341Z,66.80
2023-02-20T19:09:15.958Z,66.90
2023-02-20T19:11:43.093Z,66.90
2023-02-20T19:14:10.286Z,67.00
2023-02-20T19:16:37.449Z,67.00
2023-02-20T19:19:04.682Z,67.30
2023-02-20T19:21:31.712Z,67.40
2023-02-20T19:23:58.738Z,67.50
2023-02-20T19:26:25.751Z,67.60
2023-02-20T19:28:55.720Z,67.80
2023-02-20T19:31:23.805Z,67.80
2023-02-20T19:33:51.060Z,67.90
2023-02-20T19:36:19.077Z,68.00
2023-02-20T19:38:46.260Z,68.10
2023-02-20T19:41:14.792Z,67.90
2023-02-20T19:43:42.846Z,67.80
2023-02-20T19:46:20.930Z,67.80
2023-02-20T19:48:49.776Z,67.80
2023-02-20T19:51:19.174Z,67.70
2023-02-20T19:53:46.675Z,67.70
2023-02-20T19:56:15.216Z,67.60
2023-02-20T19:58:42.556Z,67.80
2023-02-20T20:01:15.147Z,67.90
2023-02-20T20:03:43.959Z,68.00
2023-02-20T20:06:12.920Z,68.00
2023-02-20T20:09:01.965Z,68.20
2023-02-20T20:11:29.511Z,68.20
2023-02-20T20:13:56.488Z,68.20
2023-02-20T20:16:24.533Z,68.30
2023-02-20T20:18:53.296Z,68.50
2023-02-20T20:21:21.240Z,69.50
2023-02-20T20:23:48.229Z,68.80
2023-02-20T20:26:15.653Z,68.90
2023-02-20T20:28:43.778Z,68.90
2023-02-20T20:31:11.074Z,68.90
2023-02-20T20:33:38.199Z,69.00
2023-02-20T20:36:05.572Z,68.90
2023-02-20T20:38:32.524Z,68.90
2023-02-20T20:40:59.517Z,68.90
2023-02-20T20:43:26.625Z,69.00
2023-02-20T20:45:53.829Z,69.00
2023-02-20T20:48:20.813Z,69.10
2023-02-20T20:50:47.753Z,69.10
2023-02-20T20:53:16.195Z,69.10
2023-02-20T20:55:43.383Z,69.00
2023-02-20T20:58:13.931Z,69.10
2023-02-20T21:00:41.137Z,69.20
2023-02-20T21:03:10.751Z,69.20
2023-02-20T21:05:38.392Z,69.20
2023-02-20T21:08:08.518Z,69.40
2023-02-20T21:10:36.510Z,69.50
2023-02-20T21:13:04.052Z,69.50
2023-02-20T21:15:32.240Z,69.40
2023-02-20T21:17:59.463Z,69.40
2023-02-20T21:20:29.428Z,69.50
2023-02-20T21:23:00.014Z,69.60
2023-02-20T21:25:27.404Z,69.80
2023-02-20T21:27:56.745Z,69.80
2023-02-20T21:30:26.581Z,69.90
2023-02-20T21:32:54.511Z,69.90
2023-02-20T21:35:22.948Z,70.00
2023-02-20T21:37:50.030Z,70.10
2023-02-20T21:40:18.675Z,70.10
2023-02-20T21:43:04.380Z,70.00
2023-02-20T21:45:31.766Z,69.90
2023-02-20T21:47:58.737Z,69.90
2023-02-20T21:50:25.656Z,70.10
2023-02-20T21:52:52.952Z,70.20
2023-02-20T21:55:21.016Z,70.30
2023-02-20T21:57:48.043Z,70.40
2023-02-20T22:00:16.205Z,70.40
2023-02-20T22:02:43.583Z,70.30
2023-02-20T22:05:11.734Z,70.40
2023-02-20T22:07:57.846Z,70.40
2023-02-20T22:10:44.375Z,70.40
2023-02-20T22:13:30.447Z,70.60
2023-02-20T22:16:17.027Z,70.70
2023-02-20T22:19:02.437Z,70.80
2023-02-20T22:21:48.181Z,70.90
2023-02-20T22:24:38.596Z,71.00
2023-02-20T22:27:26.216Z,71.00
2023-02-20T22:30:11.777Z,71.10
2023-02-20T22:32:57.532Z,71.10
2023-02-20T22:35:43.434Z,71.20
2023-02-20T22:38:29.135Z,71.30
2023-02-20T22:41:15.032Z,71.10
2023-02-20T22:44:00.659Z,71.30
2023-02-20T22:46:46.210Z,71.20
2023-02-20T22:49:31.834Z,71.10
2023-02-20T22:52:17.238Z,71.20
2023-02-20T22:55:05.065Z,71.30
2023-02-20T22:57:51.557Z,71.40
2023-02-20T23:00:36.942Z,71.50
2023-02-20T23:03:22.416Z,71.50
2023-02-20T23:06:17.451Z,71.40
2023-02-20T23:09:04.817Z,71.40
2023-02-20T23:11:57.579Z,71.50
2023-02-20T23:14:43.843Z,71.60
2023-02-20T23:17:36.226Z,71.80
2023-02-20T23:20:37.841Z,71.90
2023-02-20T23:23:24.243Z,72.00
2023-02-20T23:26:09.707Z,72.00
2023-02-20T23:28:55.619Z,72.00
2023-02-20T23:31:53.419Z,72.00
2023-02-20T23:34:38.769Z,72.00
2023-02-20T23:37:24.180Z,72.10
2023-02-20T23:40:10.027Z,72.20
2023-02-20T23:42:55.949Z,72.20
2023-02-20T23:45:41.988Z,72.30
2023-02-20T23:48:27.673Z,72.30
2023-02-20T23:51:13.527Z,72.40
2023-02-20T23:53:59.146Z,72.60
2023-02-20T23:56:45.265Z,72.50
2023-02-20T23:59:31.793Z,72.60
